createdAt,value
2022-10-17T00:01:11.594Z,11.75
2022-10-17T00:03:36.239Z,11.71
2022-10-17T00:05:59.269Z,11.52
2022-10-17T00:08:21.952Z,11.59
2022-10-17T00:10:45.192Z,11.51
2022-10-17T00:13:08.829Z,11.47
2022-10-17T00:15:31.682Z,11.52
2022-10-17T00:17:54.265Z,11.57
2022-10-17T00:20:17.265Z,11.62
2022-10-17T00:22:40.138Z,11.66
2022-10-17T00:25:02.710Z,11.74
2022-10-17T00:27:25.772Z,11.55
2022-10-17T00:29:50.242Z,11.44
2022-10-17T00:32:12.828Z,11.52
2022-10-17T00:34:35.237Z,11.52
2022-10-17T00:36:58.101Z,11.51
2022-10-17T00:39:20.978Z,11.54
2022-10-17T00:41:43.687Z,11.47
2022-10-17T00:44:31.370Z,11.41
2022-10-17T00:46:54.064Z,11.30
2022-10-17T00:49:16.786Z,11.21
2022-10-17T00:51:46.776Z,11.26
2022-10-17T00:54:13.842Z,11.34
2022-10-17T00:56:37.000Z,11.45
2022-10-17T00:59:00.701Z,11.54
2022-10-17T01:01:23.344Z,11.48
2022-10-17T01:03:46.108Z,11.44
2022-10-17T01:06:11.698Z,11.45
2022-10-17T01:08:34.629Z,11.47
2022-10-17T01:11:03.319Z,11.42
2022-10-17T01:13:38.174Z,11.39
2022-10-17T01:16:17.237Z,11.38
2022-10-17T01:18:50.231Z,11.34
2022-10-17T01:21:39.194Z,11.32
2022-10-17T01:24:04.854Z,11.38
2022-10-17T01:26:55.475Z,11.42
2022-10-17T01:29:56.130Z,11.24
2022-10-17T01:32:37.112Z,11.07
2022-10-17T01:35:13.284Z,11.17
2022-10-17T01:37:56.113Z,11.21
2022-10-17T01:40:49.128Z,11.16
2022-10-17T01:43:23.756Z,10.97
2022-10-17T01:45:53.840Z,10.97
2022-10-17T01:48:21.779Z,10.96
2022-10-17T01:50:56.929Z,10.84
2022-10-17T01:53:33.678Z,10.86
2022-10-17T01:56:00.426Z,10.81
2022-10-17T01:58:34.088Z,10.88
2022-10-17T02:01:01.588Z,10.86
2022-10-17T02:03:28.652Z,10.81
2022-10-17T02:05:51.730Z,10.83
2022-10-17T02:08:25.066Z,10.92
2022-10-17T02:10:54.875Z,10.84
2022-10-17T02:13:35.575Z,10.83
2022-10-17T02:16:10.852Z,10.80
2022-10-17T02:19:15.716Z,10.70
2022-10-17T02:22:08.806Z,10.83
2022-10-17T02:24:57.765Z,10.75
2022-10-17T02:27:55.916Z,10.69
2022-10-17T02:30:55.103Z,10.59
2022-10-17T02:33:40.785Z,10.66
2022-10-17T02:36:08.997Z,10.68
2022-10-17T02:38:33.135Z,10.65
2022-10-17T02:40:57.270Z,10.63
2022-10-17T02:43:21.958Z,10.68
2022-10-17T02:45:46.169Z,10.68
2022-10-17T02:48:15.432Z,10.61
2022-10-17T02:51:01.271Z,10.55
2022-10-17T02:53:31.593Z,10.52
2022-10-17T02:56:00.433Z,10.45
2022-10-17T02:58:29.059Z,10.45
2022-10-17T03:00:52.761Z,10.44
2022-10-17T03:03:30.375Z,10.45
2022-10-17T03:05:57.067Z,10.41
2022-10-17T03:08:22.374Z,10.32
2022-10-17T03:10:45.138Z,10.34
2022-10-17T03:13:07.701Z,10.27
2022-10-17T03:15:34.215Z,10.31
2022-10-17T03:17:57.007Z,10.28
2022-10-17T03:20:19.672Z,10.22
2022-10-17T03:22:42.181Z,10.25
2022-10-17T03:25:06.487Z,10.20
2022-10-17T03:27:31.640Z,10.20
2022-10-17T03:29:54.596Z,10.24
2022-10-17T03:32:17.348Z,10.21
2022-10-17T03:34:39.958Z,10.24
2022-10-17T03:37:02.748Z,10.24
2022-10-17T03:39:27.037Z,10.21
2022-10-17T03:41:49.878Z,10.21
2022-10-17T03:44:12.520Z,10.22
2022-10-17T03:46:35.336Z,10.25
2022-10-17T03:48:57.940Z,10.31
2022-10-17T03:51:20.768Z,10.24
2022-10-17T03:53:48.020Z,10.20
2022-10-17T03:56:15.329Z,10.14
2022-10-17T03:58:38.871Z,10.10
2022-10-17T04:01:09.783Z,10.10
2022-10-17T04:03:33.316Z,10.17
2022-10-17T04:05:59.964Z,10.11
2022-10-17T04:08:23.153Z,10.13
2022-10-17T04:11:08.426Z,10.01
2022-10-17T04:13:31.534Z,10.07
2022-10-17T04:15:59.041Z,9.98
2022-10-17T04:18:22.142Z,10.00
2022-10-17T04:20:44.711Z,10.08
2022-10-17T04:23:07.588Z,10.04
2022-10-17T04:25:33.413Z,10.01
2022-10-17T04:27:58.685Z,9.93
2022-10-17T04:30:21.512Z,9.97
2022-10-17T04:32:44.200Z,9.93
2022-10-17T04:35:15.533Z,9.98
2022-10-17T04:37:43.306Z,9.87
2022-10-17T04:40:12.527Z,9.77
2022-10-17T04:42:35.295Z,9.69
2022-10-17T04:44:58.111Z,9.69
2022-10-17T04:47:22.100Z,9.72
2022-10-17T04:49:44.846Z,9.69
2022-10-17T04:52:11.055Z,9.76
2022-10-17T04:54:36.628Z,9.75
2022-10-17T04:57:03.718Z,9.73
2022-10-17T04:59:26.357Z,9.69
2022-10-17T05:02:00.089Z,9.75
2022-10-17T05:04:24.847Z,9.80
2022-10-17T05:06:48.969Z,9.77
2022-10-17T05:09:28.026Z,9.80
2022-10-17T05:11:50.698Z,9.83
2022-10-17T05:14:15.146Z,9.83
2022-10-17T05:16:38.274Z,9.89
2022-10-17T05:19:01.845Z,9.91
2022-10-17T05:24:00.301Z,9.94
2022-10-17T05:26:23.942Z,10.00
2022-10-17T05:28:46.786Z,10.14
2022-10-17T05:31:11.485Z,10.18
2022-10-17T05:33:35.153Z,10.25
2022-10-17T05:35:58.568Z,10.35
2022-10-17T05:38:21.260Z,10.48
2022-10-17T05:40:45.551Z,10.53
2022-10-17T05:43:08.752Z,10.63
2022-10-17T05:45:31.645Z,10.81
2022-10-17T05:47:55.525Z,10.88
2022-10-17T05:50:21.606Z,10.89
2022-10-17T05:53:02.916Z,10.96
2022-10-17T05:55:25.955Z,11.16
2022-10-17T05:57:52.714Z,11.18
2022-10-17T06:00:16.212Z,11.24
2022-10-17T06:02:40.341Z,11.38
2022-10-17T06:05:02.935Z,11.47
2022-10-17T06:07:25.529Z,11.47
2022-10-17T06:09:49.023Z,11.57
2022-10-17T06:12:11.599Z,11.69
2022-10-17T06:14:34.612Z,11.64
2022-10-17T06:16:59.395Z,11.72
2022-10-17T06:19:24.541Z,11.94
2022-10-17T06:21:47.248Z,11.90
2022-10-17T06:24:14.406Z,11.97
2022-10-17T06:26:38.626Z,12.02
2022-10-17T06:29:03.765Z,12.06
2022-10-17T06:31:31.127Z,12.13
2022-10-17T06:33:53.832Z,12.26
2022-10-17T06:36:16.527Z,12.38
2022-10-17T06:38:41.635Z,12.36
2022-10-17T06:41:15.076Z,12.27
2022-10-17T06:43:38.300Z,12.34
2022-10-17T06:46:36.575Z,12.64
2022-10-17T06:49:01.263Z,12.81
2022-10-17T06:51:39.131Z,12.79
2022-10-17T06:54:04.959Z,12.77
2022-10-17T06:57:06.027Z,12.87
2022-10-17T06:59:47.489Z,12.91
2022-10-17T07:02:23.712Z,12.77
2022-10-17T07:04:48.476Z,12.79
2022-10-17T07:07:11.119Z,12.98
2022-10-17T07:09:34.247Z,12.95
2022-10-17T07:11:57.560Z,13.12
2022-10-17T07:14:20.213Z,13.22
2022-10-17T07:16:43.321Z,13.77
2022-10-17T07:19:15.120Z,14.22
2022-10-17T07:21:39.210Z,14.43
2022-10-17T07:24:04.223Z,14.97
2022-10-17T07:26:27.099Z,15.66
2022-10-17T07:28:54.600Z,16.35
2022-10-17T07:31:27.217Z,16.75
2022-10-17T07:33:51.385Z,16.99
2022-10-17T07:36:14.110Z,16.90
2022-10-17T07:38:37.428Z,16.97
2022-10-17T07:41:03.578Z,17.08
2022-10-17T07:43:27.120Z,16.33
2022-10-17T07:45:50.569Z,16.18
2022-10-17T07:48:13.415Z,15.89
2022-10-17T07:50:36.647Z,15.93
2022-10-17T07:52:59.514Z,15.59
2022-10-17T07:55:22.228Z,15.33
2022-10-17T07:57:45.082Z,14.95
2022-10-17T08:00:08.904Z,14.94
2022-10-17T08:02:40.217Z,14.76
2022-10-17T08:05:02.952Z,14.76
2022-10-17T08:07:29.282Z,14.71
2022-10-17T08:09:53.055Z,14.77
2022-10-17T08:12:16.098Z,14.88
2022-10-17T08:14:39.889Z,14.97
2022-10-17T08:17:02.554Z,15.06
2022-10-17T08:19:25.424Z,15.06
2022-10-17T08:21:49.755Z,15.14
2022-10-17T08:24:12.899Z,15.18
2022-10-17T08:26:39.257Z,15.40
2022-10-17T08:29:05.138Z,15.54
2022-10-17T08:31:27.811Z,15.45
2022-10-17T08:33:51.136Z,15.60
2022-10-17T08:36:15.356Z,15.60
2022-10-17T08:38:43.193Z,15.84
2022-10-17T08:41:26.391Z,15.83
2022-10-17T08:44:19.475Z,15.86
2022-10-17T08:46:45.044Z,15.91
2022-10-17T08:49:15.116Z,16.01
2022-10-17T08:51:44.384Z,16.25
2022-10-17T08:54:16.014Z,16.17
2022-10-17T08:56:54.163Z,16.19
2022-10-17T08:59:29.372Z,16.28
2022-10-17T09:02:29.461Z,16.38
2022-10-17T09:05:01.816Z,16.51
2022-10-17T09:07:24.825Z,16.63
2022-10-17T09:10:33.867Z,16.53
2022-10-17T09:13:18.588Z,16.56
2022-10-17T09:16:08.247Z,16.65
2022-10-17T09:18:36.171Z,16.86
2022-10-17T09:21:18.669Z,16.90
2022-10-17T09:24:09.610Z,17.08
2022-10-17T09:26:40.937Z,17.20
2022-10-17T09:29:10.630Z,17.17
2022-10-17T09:31:40.957Z,17.31
2022-10-17T09:34:28.216Z,17.35
2022-10-17T09:36:50.970Z,17.30
2022-10-17T09:39:26.235Z,17.42
2022-10-17T09:41:52.034Z,17.49
2022-10-17T09:44:18.731Z,17.42
2022-10-17T09:46:51.018Z,17.48
2022-10-17T09:49:19.958Z,17.68
2022-10-17T09:51:42.757Z,17.71
2022-10-17T09:54:17.801Z,17.73
2022-10-17T09:57:00.593Z,17.90
2022-10-17T09:59:42.168Z,17.97
2022-10-17T10:02:26.563Z,17.91
2022-10-17T10:05:09.557Z,17.93
2022-10-17T10:07:40.106Z,18.01
2022-10-17T10:10:04.718Z,18.01
2022-10-17T10:12:32.057Z,18.18
2022-10-17T10:14:55.992Z,18.21
2022-10-17T10:17:35.503Z,18.31
2022-10-17T10:19:59.667Z,18.40
2022-10-17T10:22:25.700Z,18.48
2022-10-17T10:25:07.799Z,18.57
2022-10-17T10:27:30.599Z,18.64
2022-10-17T10:29:53.697Z,18.59
2022-10-17T10:32:22.454Z,18.62
2022-10-17T10:34:59.211Z,18.61
2022-10-17T10:37:41.890Z,18.75
2022-10-17T10:40:16.277Z,18.86
2022-10-17T10:42:40.450Z,18.96
2022-10-17T10:45:29.202Z,19.07
2022-10-17T10:48:01.316Z,19.03
2022-10-17T10:50:29.831Z,19.17
2022-10-17T10:53:22.784Z,19.26
2022-10-17T10:55:52.107Z,19.33
2022-10-17T10:58:42.064Z,19.43
2022-10-17T11:01:14.686Z,19.49
2022-10-17T11:03:50.284Z,19.55
2022-10-17T11:06:30.521Z,19.68
2022-10-17T11:09:14.014Z,19.78
2022-10-17T11:11:42.593Z,19.81
2022-10-17T11:14:37.358Z,19.78
2022-10-17T11:17:09.207Z,19.71
2022-10-17T11:19:51.879Z,19.77
2022-10-17T11:22:26.709Z,19.70
2022-10-17T11:25:32.616Z,19.64
2022-10-17T11:27:55.607Z,19.70
2022-10-17T11:30:18.800Z,19.72
2022-10-17T11:32:49.138Z,19.82
2022-10-17T11:35:27.983Z,19.92
2022-10-17T11:37:58.238Z,19.99
2022-10-17T11:40:51.299Z,20.04
2022-10-17T11:43:16.935Z,19.98
2022-10-17T11:45:44.644Z,19.90
2022-10-17T11:48:37.679Z,19.93
2022-10-17T11:54:02.525Z,20.34
2022-10-17T11:57:06.351Z,20.47
2022-10-17T11:59:45.278Z,20.46
2022-10-17T12:02:31.039Z,20.37
2022-10-17T12:05:07.004Z,20.40
2022-10-17T12:08:12.028Z,20.71
2022-10-17T12:10:47.522Z,20.90
2022-10-17T12:13:28.378Z,20.71
2022-10-17T12:15:51.001Z,20.61
2022-10-17T12:18:17.502Z,20.57
2022-10-17T12:20:40.167Z,20.65
2022-10-17T12:23:19.480Z,20.75
2022-10-17T12:26:01.491Z,20.71
2022-10-17T12:28:48.132Z,20.91
2022-10-17T12:31:23.150Z,20.77
2022-10-17T12:33:53.264Z,20.74
2022-10-17T12:36:18.589Z,20.81
2022-10-17T12:38:41.251Z,20.96
2022-10-17T12:41:05.610Z,20.99
2022-10-17T12:43:28.465Z,20.81
2022-10-17T12:46:02.285Z,20.99
2022-10-17T12:48:33.858Z,21.11
2022-10-17T12:51:35.320Z,21.01
2022-10-17T12:54:15.155Z,20.85
2022-10-17T12:56:41.457Z,20.95
2022-10-17T12:59:22.674Z,20.85
2022-10-17T13:01:48.266Z,20.99
2022-10-17T13:04:11.456Z,20.94
2022-10-17T13:06:39.935Z,20.98
2022-10-17T13:09:06.104Z,20.91
2022-10-17T13:11:31.883Z,20.87
2022-10-17T13:13:57.351Z,20.94
2022-10-17T13:16:40.022Z,20.95
2022-10-17T13:19:14.884Z,21.03
2022-10-17T13:21:37.572Z,21.13
2022-10-17T13:24:01.219Z,21.22
2022-10-17T13:26:28.929Z,21.12
2022-10-17T13:29:05.078Z,20.95
2022-10-17T13:31:32.094Z,20.83
2022-10-17T13:34:00.999Z,20.83
2022-10-17T13:36:24.186Z,20.84
2022-10-17T13:38:47.307Z,20.83
2022-10-17T13:41:34.767Z,20.71
2022-10-17T13:44:00.983Z,20.71
2022-10-17T13:46:37.922Z,20.73
2022-10-17T13:49:15.803Z,20.58
2022-10-17T13:51:43.965Z,20.51
2022-10-17T13:54:29.823Z,20.51
2022-10-17T13:56:57.565Z,20.58
2022-10-17T13:59:25.014Z,20.51
2022-10-17T14:01:49.868Z,20.61
2022-10-17T14:04:19.919Z,20.56
2022-10-17T14:06:47.662Z,20.48
2022-10-17T14:09:32.376Z,20.44
2022-10-17T14:12:02.701Z,20.37
2022-10-17T14:14:26.357Z,20.33
2022-10-17T14:16:49.297Z,20.25
2022-10-17T14:19:32.050Z,20.15
2022-10-17T14:21:57.080Z,20.15
2022-10-17T14:24:22.343Z,20.08
2022-10-17T14:27:03.316Z,20.16
2022-10-17T14:29:28.783Z,20.04
2022-10-17T14:31:58.511Z,19.99
2022-10-17T14:34:26.677Z,19.92
2022-10-17T14:36:52.059Z,19.88
2022-10-17T14:39:24.462Z,19.78
2022-10-17T14:41:48.157Z,19.79
2022-10-17T14:44:24.357Z,19.67
2022-10-17T14:46:51.081Z,19.68
2022-10-17T14:49:35.502Z,19.50
2022-10-17T14:52:23.624Z,19.31
2022-10-17T14:54:49.251Z,19.34
2022-10-17T14:57:28.472Z,19.24
2022-10-17T14:59:55.176Z,19.27
2022-10-17T15:02:18.179Z,19.28
2022-10-17T15:04:41.062Z,19.20
2022-10-17T15:07:03.656Z,19.06
2022-10-17T15:09:28.911Z,19.00
2022-10-17T15:11:51.420Z,18.99
2022-10-17T15:14:13.911Z,18.93
2022-10-17T15:16:37.152Z,18.77
2022-10-17T15:19:00.808Z,18.58
2022-10-17T15:21:37.333Z,18.58
2022-10-17T15:24:02.061Z,18.54
2022-10-17T15:26:26.856Z,18.66
2022-10-17T15:28:50.342Z,18.62
2022-10-17T15:31:15.184Z,18.69
2022-10-17T15:33:37.732Z,18.54
2022-10-17T15:36:00.290Z,18.43
2022-10-17T15:38:22.892Z,18.28
2022-10-17T15:40:48.891Z,18.26
2022-10-17T15:43:11.493Z,18.10
2022-10-17T15:45:34.049Z,17.91
2022-10-17T15:48:02.840Z,17.79
2022-10-17T15:50:25.399Z,17.80
2022-10-17T15:52:51.143Z,17.65
2022-10-17T15:55:13.787Z,17.49
2022-10-17T15:57:40.269Z,17.49
2022-10-17T16:00:04.671Z,17.44
2022-10-17T16:02:33.436Z,17.38
2022-10-17T16:04:55.906Z,17.34
2022-10-17T16:07:19.573Z,17.21
2022-10-17T16:09:43.335Z,17.15
2022-10-17T16:12:11.676Z,17.00
2022-10-17T16:14:34.275Z,16.94
2022-10-17T16:16:56.928Z,16.79
2022-10-17T16:19:23.709Z,16.83
2022-10-17T16:21:46.672Z,16.72
2022-10-17T16:24:13.040Z,16.58
2022-10-17T16:26:35.963Z,16.53
2022-10-17T16:29:02.864Z,16.52
2022-10-17T16:31:31.177Z,16.51
2022-10-17T16:33:55.222Z,16.44
2022-10-17T16:36:17.965Z,16.33
2022-10-17T16:38:40.578Z,16.28
2022-10-17T16:41:03.350Z,16.22
2022-10-17T16:43:25.902Z,16.22
2022-10-17T16:45:48.393Z,16.22
2022-10-17T16:48:12.283Z,16.24
2022-10-17T16:50:39.320Z,16.26
2022-10-17T16:53:03.927Z,16.31
2022-10-17T16:55:26.614Z,16.33
2022-10-17T16:57:49.475Z,16.26
2022-10-17T17:00:12.811Z,16.26
2022-10-17T17:02:35.310Z,16.18
2022-10-17T17:04:57.986Z,16.14
2022-10-17T17:07:21.847Z,16.07
2022-10-17T17:09:44.607Z,16.04
2022-10-17T17:12:07.199Z,16.00
2022-10-17T17:14:29.708Z,15.96
2022-10-17T17:16:52.178Z,15.84
2022-10-17T17:19:17.143Z,15.84
2022-10-17T17:21:40.324Z,15.84
2022-10-17T17:24:04.687Z,15.87
2022-10-17T17:26:30.091Z,15.70
2022-10-17T17:28:54.320Z,15.69
2022-10-17T17:31:22.830Z,15.70
2022-10-17T17:33:46.850Z,15.69
2022-10-17T17:36:13.798Z,15.63
2022-10-17T17:38:36.945Z,15.64
2022-10-17T17:40:59.669Z,15.50
2022-10-17T17:43:24.526Z,15.42
2022-10-17T17:45:47.417Z,15.39
2022-10-17T17:48:10.204Z,15.42
2022-10-17T17:50:35.761Z,15.22
2022-10-17T17:52:58.692Z,15.12
2022-10-17T17:55:21.249Z,15.06
2022-10-17T17:57:43.752Z,14.97
2022-10-17T18:00:07.252Z,14.89
2022-10-17T18:02:31.002Z,14.83
2022-10-17T18:04:53.766Z,14.81
2022-10-17T18:07:16.411Z,14.77
2022-10-17T18:09:39.731Z,14.74
2022-10-17T18:12:02.381Z,14.60
2022-10-17T18:14:25.639Z,14.68
2022-10-17T18:16:48.245Z,14.68
2022-10-17T18:19:11.615Z,14.60
2022-10-17T18:21:36.221Z,14.59
2022-10-17T18:24:00.385Z,14.41
2022-10-17T18:26:23.378Z,14.41
2022-10-17T18:28:47.034Z,14.34
2022-10-17T18:31:24.335Z,14.39
2022-10-17T18:33:47.071Z,14.47
2022-10-17T18:36:13.506Z,14.41
2022-10-17T18:38:37.000Z,14.57
2022-10-17T18:41:11.091Z,14.47
2022-10-17T18:43:35.692Z,14.49
2022-10-17T18:46:04.034Z,14.56
2022-10-17T18:48:26.535Z,14.47
2022-10-17T18:50:49.021Z,14.46
2022-10-17T18:53:11.590Z,14.39
2022-10-17T18:55:34.383Z,14.33
2022-10-17T18:58:00.908Z,14.29
2022-10-17T19:00:23.402Z,14.36
2022-10-17T19:02:46.563Z,14.29
2022-10-17T19:05:09.708Z,14.32
2022-10-17T19:07:32.613Z,14.33
2022-10-17T19:09:57.681Z,14.32
2022-10-17T19:12:20.587Z,14.25
2022-10-17T19:14:43.319Z,14.33
2022-10-17T19:17:05.908Z,14.30
2022-10-17T19:19:28.633Z,14.29
2022-10-17T19:21:51.791Z,14.22
2022-10-17T19:24:21.157Z,14.12
2022-10-17T19:26:45.592Z,14.05
2022-10-17T19:29:08.515Z,14.02
2022-10-17T19:31:33.346Z,14.05
2022-10-17T19:33:56.486Z,14.04
2022-10-17T19:36:21.016Z,13.97
2022-10-17T19:38:43.555Z,13.89
2022-10-17T19:41:11.412Z,13.92
2022-10-17T19:43:37.609Z,13.85
2022-10-17T19:46:02.103Z,13.82
2022-10-17T19:48:25.982Z,13.79
2022-10-17T19:50:49.987Z,13.81
2022-10-17T19:53:12.457Z,13.77
2022-10-17T19:55:34.939Z,13.73
2022-10-17T19:57:59.221Z,13.81
2022-10-17T20:00:21.837Z,13.64
2022-10-17T20:02:44.301Z,13.61
2022-10-17T20:05:20.950Z,13.61
2022-10-17T20:07:46.299Z,13.60
2022-10-17T20:10:09.679Z,13.55
2022-10-17T20:12:32.844Z,13.58
2022-10-17T20:14:55.645Z,13.55
2022-10-17T20:17:18.164Z,13.50
2022-10-17T20:19:40.996Z,13.40
2022-10-17T20:22:03.592Z,13.32
2022-10-17T20:24:26.077Z,13.33
2022-10-17T20:26:48.842Z,13.34
2022-10-17T20:29:20.520Z,13.26
2022-10-17T20:31:44.667Z,13.24
2022-10-17T20:34:07.221Z,13.26
2022-10-17T20:36:29.815Z,13.24
2022-10-17T20:38:56.815Z,13.30
2022-10-17T20:41:19.356Z,13.40
2022-10-17T20:43:42.131Z,13.39
2022-10-17T20:46:22.705Z,13.24
2022-10-17T20:48:52.324Z,13.17
2022-10-17T20:51:16.535Z,13.16
2022-10-17T20:53:39.044Z,13.17
2022-10-17T20:56:07.934Z,13.16
2022-10-17T20:58:30.680Z,12.99
2022-10-17T21:00:53.290Z,12.93
2022-10-17T21:03:15.992Z,12.96
2022-10-17T21:05:41.666Z,12.95
2022-10-17T21:08:04.487Z,12.95
2022-10-17T21:10:35.583Z,12.95
2022-10-17T21:12:59.759Z,12.91
2022-10-17T21:15:22.605Z,12.85
2022-10-17T21:17:45.136Z,12.87
2022-10-17T21:20:08.199Z,12.77
2022-10-17T21:22:32.975Z,12.77
2022-10-17T21:24:55.756Z,12.78
2022-10-17T21:27:19.700Z,12.84
2022-10-17T21:29:42.600Z,12.85
2022-10-17T21:32:14.542Z,12.72
2022-10-17T21:34:47.997Z,12.72
2022-10-17T21:37:10.952Z,12.64
2022-10-17T21:39:33.584Z,12.68
2022-10-17T21:41:56.062Z,12.68
2022-10-17T21:44:21.126Z,12.74
2022-10-17T21:46:44.350Z,12.64
2022-10-17T21:49:07.028Z,12.57
2022-10-17T21:51:29.665Z,12.58
2022-10-17T21:53:53.661Z,12.45
2022-10-17T21:56:19.352Z,12.52
2022-10-17T21:58:42.737Z,12.54
2022-10-17T22:01:06.254Z,12.44
2022-10-17T22:03:28.687Z,12.40
2022-10-17T22:06:06.869Z,12.34
2022-10-17T22:08:37.408Z,12.33
2022-10-17T22:11:05.999Z,12.23
2022-10-17T22:13:28.899Z,12.14
2022-10-17T22:15:51.423Z,12.19
2022-10-17T22:18:14.445Z,12.13
2022-10-17T22:20:36.967Z,12.20
2022-10-17T22:22:59.490Z,12.02
2022-10-17T22:25:22.055Z,11.90
2022-10-17T22:27:44.861Z,11.94
2022-10-17T22:30:08.087Z,11.96
2022-10-17T22:32:30.781Z,11.96
2022-10-17T22:34:53.360Z,11.83
2022-10-17T22:37:15.856Z,11.93
2022-10-17T22:39:42.551Z,11.94
2022-10-17T22:42:05.033Z,11.86
2022-10-17T22:44:27.498Z,11.94
2022-10-17T22:46:50.109Z,11.92
2022-10-17T22:49:12.695Z,11.92
2022-10-17T22:51:35.177Z,11.87
2022-10-17T22:53:57.683Z,11.90
2022-10-17T22:56:21.723Z,11.89
2022-10-17T22:58:44.393Z,11.82
2022-10-17T23:01:08.631Z,11.78
2022-10-17T23:03:32.095Z,11.76
2022-10-17T23:05:54.891Z,11.76
2022-10-17T23:08:20.734Z,11.66
2022-10-17T23:10:43.733Z,11.71
2022-10-17T23:13:06.343Z,11.78
2022-10-17T23:15:28.972Z,11.66
2022-10-17T23:17:51.440Z,11.74
2022-10-17T23:20:14.155Z,11.64
2022-10-17T23:22:36.675Z,11.66
2022-10-17T23:24:59.291Z,11.62
2022-10-17T23:27:21.854Z,11.64
2022-10-17T23:29:46.325Z,11.66
2022-10-17T23:32:09.168Z,11.68
2022-10-17T23:34:31.715Z,11.71
2022-10-17T23:36:54.272Z,11.69
2022-10-17T23:39:17.061Z,11.59
2022-10-17T23:41:39.734Z,11.61
2022-10-17T23:44:02.376Z,11.66
2022-10-17T23:46:25.014Z,11.68
2022-10-17T23:48:47.609Z,11.72
2022-10-17T23:51:10.868Z,11.71
2022-10-17T23:53:33.420Z,11.64
2022-10-17T23:55:55.923Z,11.59
2022-10-17T23:58:18.780Z,11.57
